Osceola, IA (50213)

7:33 AM CST on December 04, 2016 (GMT -0600)
Osceola Municipal | | Change Station

Elev 1109 ft 41.05 °N, 93.69 °W | Updated 18 minutes ago

Light Snow
Light Snow
33 °F
Feels Like 29 °F
N
5
Wind Variable Wind from South

Today
High -- | Low -- °F
--% Chance of Precip.
Yesterday
High -- | Low -- °F
Precip. -- in
Pressure 29.99 in
Visibility 1.8 miles
Clouds Overcast 300 ft
Windchill 29 °F
Dew Point 33 °F
Humidity 98%
Rainfall 0.20 in
Snow Depth Not available.
7:24 AM 4:46 PM
Waxing Crescent, 22% visible
METAR KI75 041315Z AUTO 19004KT 1 3/4SM -SN OVC003 01/01 A2999 RMK AO2 P0001 T00080005
Pressure 29.99 in
Visibility 1.8 miles
Clouds Overcast 300 ft
Windchill 29 °F
Dew Point 33 °F
Humidity 98%
Rainfall 0.20 in
Snow Depth Not available.
7:24 AM 4:46 PM
Waxing Crescent, 22% visible
METAR KI75 041315Z AUTO 19004KT 1 3/4SM -SN OVC003 01/01 A2999 RMK AO2 P0001 T00080005

10-Day Weather Forecast

Almanac

Astronomy

Dec. 04, 2016 Rise Set
Actual Time
Civil Twilight
Nautical Twilight
Astronomical Twilight
Moon
Length of Visible Light
Length of Day
Tomorrow will be .
, % of the Moon is Illuminated

Today's Extremes

State Highs State Lows

Community

WunderPhotos

Upload Photos

1,955,593 photos uploaded!

WunderBlog® & News

Nearby

Air Quality

  Air Quality AQ Index Pollutant
Not available.

Snow Depth

Station Depth Elevation

Earthquake Activity

City Distance Mag. Time & Date
Minimum magnitude displayed is 2.5.

Coastal Water Temperatures

Place Temperature

Stations

Nearby Weather Stations

Station Location Temp. Windchill Dew Point Humidity Wind Precip. Elev Updated Type
                   

Watches & Warnings

There are currently no watches in effect.